Terminal Aerodrome Forecast
Issued by NWS

Home | Current Version | Previous Version | Text Only | Print | Product List | Glossary On
Versions: 1 2 3 4 5 6 7 8 9 10 11 12 13 14 15 16 17 18 19 20 21 22 23 24 25
000
FTUS41 KBGM 210500
TAFELM
TAF
KELM 210538Z 2106/2206 00000KT 3/4SM BR OVC003
      TEMPO 2113/2115 3SM BR OVC015
     FM211500 24005KT P6SM BKN025
     FM211800 25007KT 5SM SHRA BR BKN025 OVC040
     FM220000 VRB03KT 4SM BR BKN025=

USA.gov is the U.S. government's official web portal to all federal, state and local government web resources and services.